Time;durP1;ratioP1;P1;durP2;ratioP2;P2;SDS_P1;SDS_P2;PMS_P1;PMS_P2;Temp;Humidity;BMP_temperature;BMP_pressure;BME280_temperature;BME280_humidity;BME280_pressure;Samples;Min_cycle;Max_cycle;Signal;HPM_P1;HPM_P2
2023/04/02 00:02:15;;;;;;;7.50;3.88;;;3.40;99.90;;;;;;6225537;23;20389;-85
2023/04/02 00:05:15;;;;;;;6.82;3.72;;;3.40;99.90;;;;;;6224721;23;21172;-86
2023/04/02 00:07:51;;;;;;;4.88;3.40;;;3.30;99.90;;;;;;6224002;23;20381;-85
2023/04/02 00:11:09;;;;;;;6.57;3.50;;;3.30;99.90;;;;;;6223679;23;20769;-84
2023/04/02 00:13:45;;;;;;;5.65;3.25;;;3.40;99.90;;;;;;6230355;23;20348;-84
2023/04/02 00:16:26;;;;;;;6.22;3.78;;;3.50;99.90;;;;;;6224710;23;20408;-84
2023/04/02 00:19:06;;;;;;;4.95;3.22;;;3.40;99.90;;;;;;6227488;23;20342;-85
2023/04/02 00:25:16;;;;;;;4.55;2.90;;;3.40;99.90;;;;;;6227380;23;20886;-83
2023/04/02 00:28:18;;;;;;;4.43;3.00;;;3.50;99.90;;;;;;6227363;23;20384;-84
2023/04/02 00:31:06;;;;;;;5.40;3.00;;;3.40;99.90;;;;;;6226238;23;20361;-84
2023/04/02 00:33:35;;;;;;;6.28;3.63;;;3.40;99.90;;;;;;6227631;23;20369;-85
2023/04/02 00:36:35;;;;;;;4.45;3.53;;;3.40;99.90;;;;;;6226829;23;20774;-85
2023/04/02 00:42:17;;;;;;;5.10;3.00;;;3.40;99.90;;;;;;6199359;23;20350;-85
2023/04/02 00:44:48;;;;;;;7.77;3.20;;;3.40;99.90;;;;;;6223730;23;20426;-85
2023/04/02 00:47:36;;;;;;;5.65;2.97;;;3.40;99.90;;;;;;6225737;23;20365;-84
2023/04/02 00:50:07;;;;;;;5.25;3.35;;;3.40;99.90;;;;;;6225784;23;20357;-85
2023/04/02 00:52:38;;;;;;;5.28;3.13;;;3.40;99.90;;;;;;6226070;23;20341;-85
2023/04/02 00:56:05;;;;;;;5.72;2.85;;;3.50;99.90;;;;;;6225700;23;20359;-83
2023/04/02 00:58:57;;;;;;;6.47;3.20;;;3.50;99.90;;;;;;6080964;23;20404;-83
2023/04/02 01:01:36;;;;;;;6.35;3.47;;;3.40;99.90;;;;;;6058992;23;20345;-84
2023/04/02 01:04:52;;;;;;;;;;;;;;;;;;;;;
2023/04/02 01:07:52;;;;;;;4.22;3.10;;;3.50;99.90;;;;;;6238574;23;20446;-85
2023/04/02 01:10:51;;;;;;;6.43;3.08;;;3.40;99.90;;;;;;6171853;23;20380;-85
2023/04/02 01:14:10;;;;;;;5.65;2.95;;;3.60;99.90;;;;;;6237639;23;20345;-85
2023/04/02 01:17:09;;;;;;;4.80;2.88;;;3.40;99.90;;;;;;6211098;23;20342;-84
2023/04/02 01:19:53;;;;;;;6.53;2.80;;;3.60;99.90;;;;;;6236740;23;20357;-84
2023/04/02 01:22:46;;;;;;;6.60;2.85;;;3.50;99.90;;;;;;6234377;23;20342;-84
2023/04/02 01:25:49;;;;;;;;;;;;;;;;;;;;;
2023/04/02 01:28:28;;;;;;;4.95;2.90;;;3.50;99.90;;;;;;6108025;23;20391;-84
2023/04/02 01:30:56;;;;;;;6.15;2.70;;;3.60;99.90;;;;;;6225709;23;20347;-84
2023/04/02 01:34:10;;;;;;;;;;;;;;;;;;;;;
2023/04/02 01:36:55;;;;;;;5.18;3.00;;;3.40;99.90;;;;;;6224746;23;20369;-82
2023/04/02 01:39:39;;;;;;;4.55;2.80;;;3.50;99.90;;;;;;6225825;23;20365;-84
2023/04/02 01:42:48;;;;;;;5.78;3.05;;;3.30;99.90;;;;;;6223574;23;20338;-85
2023/04/02 01:51:02;;;;;;;5.63;2.70;;;3.50;99.90;;;;;;6247043;22;20382;-85
2023/04/02 01:53:34;;;;;;;5.32;2.90;;;3.40;99.90;;;;;;6232113;23;20364;-83
2023/04/02 01:56:03;;;;;;;4.68;2.70;;;3.50;99.90;;;;;;6246196;22;20348;-82
2023/04/02 01:58:41;;;;;;;4.65;2.83;;;3.60;99.90;;;;;;6272966;22;20361;-83
2023/04/02 02:01:15;;;;;;;5.35;3.03;;;3.40;99.90;;;;;;6246981;22;20343;-83
2023/04/02 02:06:34;;;;;;;4.43;2.50;;;3.60;99.90;;;;;;6200925;23;20601;-84
2023/04/02 02:09:10;;;;;;;3.67;2.50;;;3.50;99.90;;;;;;6254830;23;20379;-84
2023/04/02 02:11:36;;;;;;;4.78;2.90;;;3.50;99.90;;;;;;6233984;23;20352;-84
2023/04/02 02:14:13;;;;;;;5.32;2.90;;;3.40;99.90;;;;;;6232502;23;20340;-85
2023/04/02 02:16:42;;;;;;;5.45;2.83;;;3.50;99.90;;;;;;6232598;23;20360;-84
2023/04/02 02:19:39;;;;;;;5.03;2.85;;;3.40;99.90;;;;;;6232347;23;20419;-85
2023/04/02 02:22:38;;;;;;;5.30;2.95;;;3.40;99.90;;;;;;6230855;23;20357;-85
2023/04/02 02:25:43;;;;;;;6.90;3.30;;;3.50;99.90;;;;;;6231327;23;20399;-85
2023/04/02 02:28:24;;;;;;;6.95;2.88;;;3.50;99.90;;;;;;6110844;23;20375;-85
2023/04/02 02:31:04;;;;;;;4.38;2.78;;;3.50;99.90;;;;;;6231430;23;20341;-85
2023/04/02 02:37:24;;;;;;;6.28;2.97;;;3.50;99.90;;;;;;6130234;23;20799;-85
2023/04/02 02:40:11;;;;;;;6.00;2.90;;;3.40;99.90;;;;;;6091698;23;20355;-84
2023/04/02 02:43:39;;;;;;;5.53;3.20;;;3.40;99.90;;;;;;6136120;23;20361;-85
2023/04/02 02:46:30;;;;;;;5.90;3.00;;;3.40;99.90;;;;;;6108436;23;20725;-85
2023/04/02 02:49:06;;;;;;;4.50;2.97;;;3.50;99.90;;;;;;6231711;23;20451;-85
2023/04/02 02:52:07;;;;;;;6.20;3.17;;;3.50;99.90;;;;;;6231181;23;20360;-84
2023/04/02 02:54:57;;;;;;;6.30;3.10;;;3.50;99.90;;;;;;6210535;23;20344;-85
2023/04/02 02:57:35;;;;;;;4.63;2.93;;;3.40;99.90;;;;;;6230847;23;20356;-85
2023/04/02 03:00:08;;;;;;;7.25;3.13;;;3.40;99.90;;;;;;6230314;23;20380;-85
2023/04/02 03:02:58;;;;;;;;;;;;;;;;;;;;;
2023/04/02 03:05:46;;;;;;;6.35;3.15;;;3.50;99.90;;;;;;6257026;23;20356;-85
2023/04/02 03:08:58;;;;;;;3.88;2.45;;;3.40;99.90;;;;;;6227845;23;20838;-84
2023/04/02 03:11:51;;;;;;;4.25;2.47;;;3.40;99.90;;;;;;6216201;23;20407;-85
2023/04/02 03:14:30;;;;;;;6.70;2.65;;;3.40;99.90;;;;;;6229140;23;20354;-84
2023/04/02 03:17:23;;;;;;;4.00;2.50;;;3.40;99.90;;;;;;6229485;23;20841;-85
2023/04/02 03:20:21;;;;;;;5.68;2.90;;;3.30;99.90;;;;;;6228752;23;20364;-85
2023/04/02 03:23:07;;;;;;;5.05;2.50;;;3.40;99.90;;;;;;6255477;23;20355;-84
2023/04/02 03:25:53;;;;;;;5.80;2.80;;;3.40;99.90;;;;;;6255538;23;20344;-85
2023/04/02 03:28:37;;;;;;;6.47;2.75;;;3.40;99.90;;;;;;6229116;23;20360;-85
2023/04/02 03:31:26;;;;;;;4.55;2.80;;;3.40;99.90;;;;;;6229221;23;20352;-84
2023/04/02 03:34:36;;;;;;;3.15;2.35;;;3.40;99.90;;;;;;6228673;23;20391;-84
2023/04/02 03:38:09;;;;;;;5.25;2.50;;;3.40;99.90;;;;;;6138236;23;20381;-85
2023/04/02 03:41:27;;;;;;;7.25;2.75;;;3.30;99.90;;;;;;6132360;23;20387;-85
2023/04/02 03:47:35;;;;;;;5.32;2.65;;;3.40;99.90;;;;;;5968668;24;20899;-85
2023/04/02 03:50:21;;;;;;;5.18;2.60;;;3.40;99.90;;;;;;5981139;24;20405;-85
2023/04/02 03:53:31;;;;;;;;;;;;;;;;;;;;;
2023/04/02 03:55:59;;;;;;;4.63;2.38;;;3.40;99.90;;;;;;6214517;23;20395;-85
2023/04/02 03:58:51;;;;;;;6.28;2.72;;;3.50;99.90;;;;;;6199887;23;20425;-85
2023/04/02 04:01:38;;;;;;;5.03;2.88;;;3.50;99.90;;;;;;6155322;23;20659;-84
2023/04/02 04:04:17;;;;;;;5.72;3.03;;;3.60;99.90;;;;;;6200158;23;20357;-85
2023/04/02 04:07:00;;;;;;;5.13;2.90;;;3.60;99.90;;;;;;6199805;23;20335;-84
2023/04/02 04:09:36;;;;;;;5.17;2.90;;;3.60;99.90;;;;;;6200784;23;20397;-85
2023/04/02 04:13:03;;;;;;;;;;;;;;;;;;;;;
2023/04/02 04:15:59;;;;;;;5.65;2.92;;;3.40;99.90;;;;;;6226903;23;20378;-84
2023/04/02 04:18:49;;;;;;;5.93;2.97;;;3.50;99.90;;;;;;6214181;23;20433;-85
2023/04/02 04:21:36;;;;;;;6.63;2.83;;;3.50;99.90;;;;;;6199517;23;20330;-84
2023/04/02 04:24:05;;;;;;;4.43;2.70;;;3.40;99.90;;;;;;6199884;23;20346;-84
2023/04/02 04:30:21;;;;;;;5.65;3.00;;;3.40;99.90;;;;;;6214980;23;20357;-85
2023/04/02 04:33:31;;;;;;;;;;;;;;;;;;;;;
2023/04/02 04:39:49;;;;;;;7.18;3.30;;;3.50;99.90;;;;;;6054440;23;20434;-84
2023/04/02 04:43:09;;;;;;;;;;;;;;;;;;;;;
2023/04/02 04:49:30;;;;;;;;;;;;;;;;;;;;;
2023/04/02 05:03:18;;;;;;;6.30;3.20;;;3.60;99.90;;;;;;5883280;24;20458;-84
2023/04/02 05:09:50;;;;;;;7.28;3.00;;;3.70;99.90;;;;;;5945396;24;20375;-85
2023/04/02 05:16:33;;;;;;;5.00;2.92;;;3.40;99.90;;;;;;6020441;23;20361;-84
2023/04/02 05:19:11;;;;;;;4.93;2.80;;;3.50;99.90;;;;;;6111176;23;20357;-85
2023/04/02 05:22:24;;;;;;;5.37;2.90;;;3.50;99.90;;;;;;6227794;23;20326;-84
2023/04/02 05:28:52;;;;;;;5.57;2.50;;;3.50;99.90;;;;;;6135411;23;20572;-85
2023/04/02 05:32:24;;;;;;;;;;;;;;;;;;;;;
2023/04/02 05:34:55;;;;;;;5.28;2.20;;;3.60;99.90;;;;;;6117984;23;20375;-85
2023/04/02 05:37:58;;;;;;;6.25;2.53;;;3.60;99.90;;;;;;6177637;23;20350;-86
2023/04/02 05:40:48;;;;;;;5.33;2.90;;;3.70;99.90;;;;;;6207998;23;20416;-85
2023/04/02 05:43:22;;;;;;;4.88;2.53;;;3.60;99.90;;;;;;6227344;23;20330;-84
2023/04/02 05:54:00;;;;;;;;;;;;;;;;;;;;;
2023/04/02 06:00:07;;;;;;;6.63;2.58;;;3.90;99.90;;;;;;6135727;23;20365;-85
2023/04/02 06:13:16;;;;;;;6.53;3.07;;;4.00;99.90;;;;;;6076200;23;20426;-85
2023/04/02 06:16:37;;;;;;;6.07;2.72;;;3.90;99.90;;;;;;6118063;23;20445;-86
2023/04/02 06:20:18;;;;;;;6.45;2.88;;;3.90;99.90;;;;;;6082093;23;20384;-85
2023/04/02 06:26:33;;;;;;;6.50;3.13;;;4.00;99.90;;;;;;6056426;23;20460;-84
2023/04/02 06:32:26;;;;;;;5.47;2.88;;;4.00;99.90;;;;;;6134675;23;20362;-83
2023/04/02 06:39:11;;;;;;;4.93;2.57;;;3.90;99.90;;;;;;6133351;23;20434;-86
2023/04/02 06:41:45;;;;;;;5.70;2.35;;;4.20;99.90;;;;;;6077899;23;20363;-85
2023/04/02 06:44:46;;;;;;;5.20;2.35;;;4.20;99.90;;;;;;6134486;23;20335;-85
2023/04/02 06:47:46;;;;;;;;;;;;;;;;;;;;;
2023/04/02 06:51:13;;;;;;;4.80;2.30;;;4.10;99.90;;;;;;6187854;23;20394;-85
2023/04/02 06:54:16;;;;;;;4.55;2.35;;;4.00;99.90;;;;;;6178064;23;20420;-85
2023/04/02 07:00:29;;;;;;;4.10;2.20;;;4.40;99.90;;;;;;6184452;23;20400;-85
2023/04/02 07:09:42;;;;;;;5.95;2.40;;;4.60;99.90;;;;;;6195786;23;20371;-85
2023/04/02 07:12:46;;;;;;;3.83;1.92;;;4.70;99.90;;;;;;6169830;23;20340;-85
2023/04/02 07:19:47;;;;;;;;;;;;;;;;;;;;;
2023/04/02 07:26:22;;;;;;;3.17;1.57;;;5.30;99.90;;;;;;6137375;23;20904;-85
2023/04/02 07:30:20;;;;;;;;;;;;;;;;;;;;;
2023/04/02 07:36:47;;;;;;;6.60;2.13;;;4.70;99.90;;;;;;5968786;23;20384;-85
2023/04/02 07:39:22;;;;;;;5.85;2.35;;;4.80;99.90;;;;;;6022158;23;20354;-85
2023/04/02 07:41:57;;;;;;;4.65;2.15;;;4.80;99.90;;;;;;6022164;23;20342;-85
2023/04/02 07:44:36;;;;;;;5.13;1.92;;;4.80;99.90;;;;;;6074749;23;20352;-86
2023/04/02 07:47:07;;;;;;;5.33;2.40;;;4.70;99.90;;;;;;6226846;23;20450;-85
2023/04/02 07:49:36;;;;;;;6.63;2.50;;;4.70;99.90;;;;;;6225498;23;20693;-84
2023/04/02 07:56:01;;;;;;;4.33;1.90;;;4.70;99.90;;;;;;6224859;23;20338;-85
2023/04/02 08:02:05;;;;;;;4.60;1.88;;;4.80;99.90;;;;;;6228533;23;20345;-86
2023/04/02 08:07:23;;;;;;;2.92;1.70;;;5.00;99.90;;;;;;6161467;23;20338;-86
2023/04/02 08:10:22;;;;;;;5.90;2.20;;;4.80;99.90;;;;;;6212905;23;20373;-84
2023/04/02 08:12:57;;;;;;;4.05;2.10;;;4.70;99.90;;;;;;6226643;23;20341;-86
2023/04/02 08:15:31;;;;;;;6.22;2.22;;;4.70;99.90;;;;;;6229247;23;20377;-86
2023/04/02 08:21:55;;;;;;;;;;;;;;;;;;;;;
2023/04/02 08:24:34;;;;;;;;;;;;;;;;;;;;;
2023/04/02 08:27:15;;;;;;;7.00;3.50;;;5.10;99.90;;;;;;6269692;23;20335;-83
2023/04/02 08:32:54;;;;;;;2.88;1.80;;;5.00;99.90;;;;;;6241789;22;20399;-84
2023/04/02 08:35:56;;;;;;;4.13;2.08;;;5.00;99.90;;;;;;6138489;23;20344;-85
2023/04/02 08:38:31;;;;;;;3.95;1.98;;;5.00;99.90;;;;;;6235668;23;20415;-85
2023/04/02 08:41:04;;;;;;;3.83;1.85;;;5.30;99.90;;;;;;6233849;23;20340;-84
2023/04/02 08:43:56;;;;;;;4.10;2.08;;;5.30;99.90;;;;;;6232964;23;20818;-86
2023/04/02 08:50:28;;;;;;;;;;;;;;;;;;;;;
2023/04/02 08:53:25;;;;;;;6.87;2.00;;;6.40;99.90;;;;;;6258689;23;20459;-86
2023/04/02 09:03:38;;;;;;;2.67;1.67;;;6.40;99.90;;;;;;6106518;23;20408;-84
2023/04/02 09:06:33;;;;;;;3.65;1.73;;;6.50;99.90;;;;;;6048029;23;20360;-84
2023/04/02 09:17:00;;;;;;;4.72;1.70;;;7.60;99.90;;;;;;6044773;23;20365;-86
2023/04/02 09:19:39;;;;;;;3.88;1.45;;;7.20;99.90;;;;;;6085818;23;20744;-87
2023/04/02 09:22:34;;;;;;;4.80;1.90;;;6.80;99.90;;;;;;6165915;23;20416;-86
2023/04/02 09:25:13;;;;;;;4.53;1.45;;;6.80;99.90;;;;;;6219135;23;20340;-86
2023/04/02 09:27:45;;;;;;;4.53;1.52;;;7.70;99.90;;;;;;6258794;23;20345;-87
2023/04/02 09:30:32;;;;;;;3.00;1.60;;;7.90;99.90;;;;;;6233225;23;20394;-87
2023/04/02 09:33:11;;;;;;;3.60;1.40;;;10.00;99.90;;;;;;6235259;23;20788;-88
2023/04/02 09:35:50;;;;;;;3.38;1.50;;;10.50;99.90;;;;;;6235416;23;20340;-86
2023/04/02 09:38:19;;;;;;;5.10;1.65;;;10.70;99.90;;;;;;6233676;23;20513;-85
2023/04/02 09:41:06;;;;;;;3.20;1.65;;;9.80;99.90;;;;;;6231658;23;20400;-86
2023/04/02 09:43:37;;;;;;;4.60;1.60;;;8.90;99.90;;;;;;6231924;23;20344;-85
2023/04/02 09:46:12;;;;;;;6.22;2.30;;;8.30;99.90;;;;;;6232959;23;20352;-86
2023/04/02 09:48:45;;;;;;;3.05;1.55;;;7.80;99.90;;;;;;6235173;23;20446;-87
2023/04/02 09:51:22;;;;;;;3.50;1.50;;;7.60;99.90;;;;;;6236249;23;20348;-87
2023/04/02 09:54:12;;;;;;;2.72;1.30;;;8.50;99.90;;;;;;6231790;23;20356;-85
2023/04/02 09:56:40;;;;;;;4.20;1.60;;;10.40;99.90;;;;;;6231328;23;20340;-85
2023/04/02 09:59:13;;;;;;;4.70;1.50;;;10.40;99.90;;;;;;6231058;23;20347;-86
2023/04/02 10:01:42;;;;;;;2.45;1.25;;;10.00;99.90;;;;;;6230435;23;20389;-86
2023/04/02 10:04:33;;;;;;;3.00;1.85;;;9.60;99.90;;;;;;6233249;23;20351;-87
2023/04/02 10:07:01;;;;;;;5.40;1.77;;;8.40;99.90;;;;;;6233026;23;20340;-86
2023/04/02 10:09:31;;;;;;;3.25;1.45;;;8.30;99.90;;;;;;6233767;23;20446;-86
2023/04/02 10:11:59;;;;;;;2.60;1.47;;;9.10;99.90;;;;;;6230429;23;20345;-87
2023/04/02 10:14:33;;;;;;;4.40;1.60;;;10.40;99.90;;;;;;6230691;23;20413;-85
2023/04/02 10:17:10;;;;;;;4.00;1.52;;;10.90;99.90;;;;;;6230924;23;20341;-85
2023/04/02 10:19:37;;;;;;;4.45;1.55;;;9.90;99.90;;;;;;6230768;23;20355;-87
2023/04/02 10:22:12;;;;;;;4.55;1.42;;;9.90;99.90;;;;;;6230865;23;20340;-87
2023/04/02 10:24:41;;;;;;;4.40;1.65;;;10.00;99.90;;;;;;6231000;23;20660;-87
2023/04/02 10:27:36;;;;;;;3.40;1.50;;;9.70;99.90;;;;;;6231785;23;20350;-88
2023/04/02 10:30:05;;;;;;;3.73;1.50;;;10.20;99.90;;;;;;6231021;23;20356;-87
2023/04/02 10:32:58;;;;;;;2.55;1.30;;;11.20;99.90;;;;;;6230007;23;20345;-86
2023/04/02 10:35:36;;;;;;;3.97;1.52;;;11.30;99.90;;;;;;6232082;23;20341;-87
2023/04/02 10:38:26;;;;;;;3.67;1.58;;;11.70;99.90;;;;;;6231098;23;20348;-87
2023/04/02 10:41:02;;;;;;;4.15;1.75;;;11.00;99.90;;;;;;6258753;23;20367;-87
2023/04/02 10:43:40;;;;;;;4.13;1.55;;;11.20;99.90;;;;;;6230236;23;20348;-85
2023/04/02 10:46:35;;;;;;;4.32;1.73;;;11.30;99.90;;;;;;6230202;23;20371;-86
2023/04/02 10:49:20;;;;;;;3.72;1.70;;;11.30;99.90;;;;;;6233430;23;20370;-85
2023/04/02 10:52:32;;;;;;;4.07;1.63;;;11.10;99.90;;;;;;6234225;23;20337;-86
2023/04/02 10:55:43;;;;;;;;;;;;;;;;;;;;;
2023/04/02 10:58:27;;;;;;;4.95;1.80;;;9.40;99.90;;;;;;6169774;23;20340;-86
2023/04/02 11:01:02;;;;;;;7.93;2.20;;;8.80;99.90;;;;;;6241960;23;20356;-87
2023/04/02 11:03:35;;;;;;;4.15;1.77;;;8.80;99.90;;;;;;6237039;23;20345;-86
2023/04/02 11:06:24;;;;;;;3.53;1.57;;;8.60;99.90;;;;;;6236822;23;20320;-86
2023/04/02 11:08:56;;;;;;;4.63;1.73;;;9.50;99.90;;;;;;6236973;23;20375;-87
2023/04/02 11:11:38;;;;;;;6.17;1.80;;;9.40;99.90;;;;;;6237791;23;20332;-87
2023/04/02 11:14:28;;;;;;;5.90;1.98;;;9.00;99.90;;;;;;6237830;23;20413;-88
2023/04/02 11:16:57;;;;;;;4.40;2.00;;;8.90;99.90;;;;;;6235164;23;20336;-87
2023/04/02 11:19:31;;;;;;;4.93;2.07;;;9.20;99.90;;;;;;6265080;23;20340;-86
2023/04/02 11:22:03;;;;;;;5.30;1.95;;;9.10;99.90;;;;;;6238465;23;20374;-86
2023/04/02 11:24:32;;;;;;;4.82;1.98;;;8.90;99.90;;;;;;6236895;23;20786;-86
2023/04/02 11:27:16;;;;;;;6.45;2.03;;;8.60;99.90;;;;;;6236055;23;20349;-86
2023/04/02 11:29:52;;;;;;;5.03;2.10;;;8.50;99.90;;;;;;6268700;23;20333;-85
2023/04/02 11:32:25;;;;;;;7.28;2.20;;;8.30;99.90;;;;;;6244630;23;20363;-84
2023/04/02 11:34:54;;;;;;;4.83;2.20;;;8.10;99.90;;;;;;6237863;23;20349;-87
2023/04/02 11:37:32;;;;;;;5.05;2.00;;;8.10;99.90;;;;;;6236781;23;20343;-86
2023/04/02 11:40:10;;;;;;;4.25;1.92;;;8.50;99.90;;;;;;6235381;23;20336;-86
2023/04/02 11:42:58;;;;;;;5.88;1.60;;;8.90;99.90;;;;;;6236872;23;20336;-86
2023/04/02 11:45:27;;;;;;;5.07;1.90;;;9.10;99.90;;;;;;6234746;23;20374;-86
2023/04/02 11:48:07;;;;;;;5.05;2.03;;;9.10;99.90;;;;;;6229909;23;20348;-87
2023/04/02 11:50:41;;;;;;;4.95;1.80;;;9.00;99.90;;;;;;6233439;23;20394;-85
2023/04/02 11:53:16;;;;;;;5.10;2.15;;;9.20;99.90;;;;;;6235624;23;20726;-86
2023/04/02 11:55:42;;;;;;;5.88;2.40;;;8.80;99.90;;;;;;6233848;23;20440;-87
2023/04/02 11:58:44;;;;;;;5.13;1.67;;;9.00;99.90;;;;;;6229969;23;20356;-86
2023/04/02 12:01:44;;;;;;;6.78;1.90;;;9.40;99.90;;;;;;6229801;23;20354;-85
2023/04/02 12:04:16;;;;;;;4.28;1.92;;;9.20;99.90;;;;;;6230286;23;20340;-86
2023/04/02 12:07:00;;;;;;;4.50;1.88;;;8.70;99.90;;;;;;6231589;23;20383;-85
2023/04/02 12:09:32;;;;;;;4.43;1.63;;;8.40;99.90;;;;;;6230172;23;20429;-85
2023/04/02 12:12:13;;;;;;;4.43;1.60;;;8.30;99.90;;;;;;6231241;23;20799;-83
2023/04/02 12:14:53;;;;;;;4.40;1.88;;;8.50;99.90;;;;;;6231274;23;20348;-84
2023/04/02 12:17:33;;;;;;;3.63;1.80;;;8.50;99.90;;;;;;6231543;23;20431;-86
2023/04/02 12:20:07;;;;;;;6.23;2.00;;;8.90;99.90;;;;;;6231298;23;20348;-84
2023/04/02 12:22:38;;;;;;;5.35;1.55;;;9.10;99.90;;;;;;6232014;23;20368;-85
2023/04/02 12:25:43;;;;;;;3.20;1.55;;;9.10;99.90;;;;;;6231497;23;20340;-85
2023/04/02 12:28:08;;;;;;;3.85;1.55;;;9.10;99.90;;;;;;6229046;23;20364;-85
2023/04/02 12:30:35;;;;;;;5.45;1.80;;;9.20;99.90;;;;;;6231185;23;20357;-84
2023/04/02 12:33:32;;;;;;;6.05;2.05;;;8.90;99.90;;;;;;6230181;23;20363;-84
2023/04/02 12:36:00;;;;;;;4.47;1.77;;;8.80;99.90;;;;;;6230428;23;20347;-84
2023/04/02 12:38:36;;;;;;;3.65;1.58;;;8.70;99.90;;;;;;6230868;23;20520;-84
2023/04/02 12:41:05;;;;;;;3.83;1.50;;;8.80;99.90;;;;;;6234015;23;20403;-85
2023/04/02 12:43:36;;;;;;;4.78;2.05;;;8.50;99.90;;;;;;6236685;23;20446;-85
2023/04/02 12:46:10;;;;;;;5.93;1.65;;;8.70;99.90;;;;;;6236756;23;20359;-86
2023/04/02 12:48:38;;;;;;;3.67;1.70;;;8.80;99.90;;;;;;6264570;23;20379;-85
2023/04/02 12:51:04;;;;;;;3.75;1.48;;;8.90;99.90;;;;;;6242206;23;20344;-86
2023/04/02 12:53:39;;;;;;;4.05;1.70;;;9.40;99.90;;;;;;6241867;23;20358;-86
2023/04/02 12:56:07;;;;;;;3.55;1.52;;;9.30;99.90;;;;;;6237555;23;20340;-83
2023/04/02 12:58:37;;;;;;;4.82;1.52;;;9.00;99.90;;;;;;6237550;23;20352;-84
2023/04/02 13:01:12;;;;;;;3.77;1.70;;;8.90;99.90;;;;;;6237516;23;20348;-85
2023/04/02 13:03:40;;;;;;;4.88;1.95;;;8.80;99.90;;;;;;6233953;23;20352;-85
2023/04/02 13:06:23;;;;;;;4.15;1.65;;;8.80;99.90;;;;;;6234657;23;20346;-85
2023/04/02 13:08:49;;;;;;;3.20;1.48;;;8.90;99.90;;;;;;6233495;23;20403;-86
2023/04/02 13:11:16;;;;;;;5.20;1.80;;;9.00;99.90;;;;;;6232779;23;20399;-86
2023/04/02 13:13:45;;;;;;;3.07;1.53;;;9.00;99.90;;;;;;6231811;23;20407;-85
2023/04/02 13:16:16;;;;;;;3.03;1.63;;;8.80;99.90;;;;;;6232466;23;20336;-85
2023/04/02 13:18:44;;;;;;;4.28;1.65;;;9.20;99.90;;;;;;6232982;23;20836;-85
2023/04/02 13:21:19;;;;;;;5.03;1.67;;;8.80;99.90;;;;;;6234147;23;20663;-86
2023/04/02 13:23:49;;;;;;;4.82;1.80;;;8.80;99.90;;;;;;6238476;23;20359;-86
2023/04/02 13:26:27;;;;;;;3.43;1.30;;;8.60;99.90;;;;;;6237810;23;20413;-85
2023/04/02 13:29:01;;;;;;;2.15;1.23;;;8.90;99.90;;;;;;6238043;23;20835;-87
2023/04/02 13:31:34;;;;;;;3.97;1.63;;;8.80;99.90;;;;;;6240144;23;20379;-85
2023/04/02 13:34:30;;;;;;;4.35;1.55;;;9.10;99.90;;;;;;6263562;23;20348;-85
2023/04/02 13:37:04;;;;;;;6.25;2.08;;;9.40;99.90;;;;;;6238485;23;20447;-85
2023/04/02 13:39:42;;;;;;;5.85;1.60;;;9.70;99.90;;;;;;6239366;23;20355;-85
2023/04/02 13:42:10;;;;;;;5.40;1.90;;;9.20;99.90;;;;;;6238339;23;20424;-84
2023/04/02 13:44:36;;;;;;;4.82;1.70;;;8.60;99.90;;;;;;6239271;23;20341;-84
2023/04/02 13:47:03;;;;;;;6.40;2.03;;;8.40;99.90;;;;;;6237163;23;20352;-85
2023/04/02 13:49:30;;;;;;;3.90;1.52;;;8.30;99.90;;;;;;6237505;23;20435;-85
2023/04/02 13:52:04;;;;;;;3.65;1.50;;;8.30;99.90;;;;;;6238158;23;20370;-85
2023/04/02 13:54:54;;;;;;;3.67;1.27;;;8.30;99.90;;;;;;6264112;23;20342;-85
2023/04/02 13:57:20;;;;;;;4.45;1.60;;;8.40;99.90;;;;;;6238106;23;20336;-85
2023/04/02 13:59:48;;;;;;;4.55;1.58;;;8.80;99.90;;;;;;6237405;23;20348;-85
2023/04/02 14:02:23;;;;;;;4.00;1.73;;;8.70;99.90;;;;;;6236941;23;20390;-85
2023/04/02 14:05:00;;;;;;;4.67;1.87;;;8.10;99.90;;;;;;6237970;23;20356;-85
2023/04/02 14:07:38;;;;;;;3.08;1.58;;;7.90;99.90;;;;;;6265546;23;20341;-85
2023/04/02 14:10:13;;;;;;;5.28;2.00;;;8.20;99.90;;;;;;6237649;23;20738;-85
2023/04/02 14:13:04;;;;;;;4.80;1.73;;;8.40;99.90;;;;;;6238452;23;20399;-85
2023/04/02 14:16:01;;;;;;;4.13;1.90;;;8.40;99.90;;;;;;6237326;23;20378;-84
2023/04/02 14:19:06;;;;;;;3.83;1.35;;;8.20;99.90;;;;;;6239621;23;20340;-86
2023/04/02 14:21:50;;;;;;;6.18;1.80;;;7.90;99.90;;;;;;6234597;23;20345;-84
2023/04/02 14:24:24;;;;;;;5.93;1.90;;;7.80;99.90;;;;;;6218991;23;20355;-85
2023/04/02 14:27:31;;;;;;;3.95;1.60;;;7.90;99.90;;;;;;6241053;23;20379;-86
2023/04/02 14:30:16;;;;;;;3.22;1.70;;;8.50;99.90;;;;;;6204866;23;20374;-85
2023/04/02 14:33:03;;;;;;;5.45;1.77;;;8.70;99.90;;;;;;6239867;23;20352;-84
2023/04/02 14:35:38;;;;;;;3.88;1.73;;;8.10;99.90;;;;;;6266760;23;20324;-84
2023/04/02 14:38:17;;;;;;;3.78;1.70;;;7.80;99.90;;;;;;6239876;23;20328;-83
2023/04/02 14:40:58;;;;;;;4.57;1.60;;;7.50;99.90;;;;;;6240715;23;20348;-85
2023/04/02 14:43:49;;;;;;;5.22;1.60;;;7.60;99.90;;;;;;6240651;23;20352;-85
2023/04/02 14:46:21;;;;;;;4.85;1.60;;;7.90;99.90;;;;;;6243195;23;20348;-82
2023/04/02 14:48:55;;;;;;;3.28;1.50;;;7.80;99.90;;;;;;6243771;23;20349;-82
2023/04/02 14:51:40;;;;;;;4.38;1.60;;;7.40;99.90;;;;;;6245537;23;20327;-84
2023/04/02 14:54:17;;;;;;;4.22;1.70;;;7.30;99.90;;;;;;6243360;23;20344;-82
2023/04/02 14:57:11;;;;;;;6.82;1.80;;;7.40;99.90;;;;;;6240009;23;20347;-86
2023/04/02 14:59:43;;;;;;;3.15;1.42;;;7.80;99.90;;;;;;6214859;23;20359;-83
2023/04/02 15:02:20;;;;;;;4.00;1.77;;;8.00;99.90;;;;;;6239088;23;20375;-85
2023/04/02 15:05:00;;;;;;;4.25;1.40;;;7.90;99.90;;;;;;6266081;23;20359;-85
2023/04/02 15:07:39;;;;;;;5.45;2.28;;;7.80;99.90;;;;;;6237664;23;20672;-85
2023/04/02 15:10:34;;;;;;;3.87;1.60;;;7.70;99.90;;;;;;6239008;23;20360;-85
2023/04/02 15:13:05;;;;;;;4.78;1.77;;;7.90;99.90;;;;;;6238668;23;20364;-84
2023/04/02 15:15:32;;;;;;;3.63;1.45;;;7.90;99.90;;;;;;6266294;23;20328;-85
2023/04/02 15:18:10;;;;;;;3.65;1.65;;;7.70;99.90;;;;;;6237487;23;20370;-85
2023/04/02 15:20:50;;;;;;;4.13;1.50;;;7.60;99.90;;;;;;6237371;23;20352;-87
2023/04/02 15:23:42;;;;;;;3.20;1.52;;;7.60;99.90;;;;;;6237462;23;20412;-86
2023/04/02 15:26:27;;;;;;;4.23;1.60;;;7.70;99.90;;;;;;6221079;23;20394;-86
2023/04/02 15:29:17;;;;;;;3.22;1.73;;;7.80;99.90;;;;;;6236904;23;20365;-85
2023/04/02 15:31:47;;;;;;;4.63;2.05;;;8.00;99.90;;;;;;6237734;23;20375;-85
2023/04/02 15:34:34;;;;;;;4.47;1.88;;;8.00;99.90;;;;;;6235871;23;20344;-83
2023/04/02 15:37:41;;;;;;;4.45;1.67;;;7.60;99.90;;;;;;6261865;23;20356;-86
2023/04/02 15:40:15;;;;;;;2.85;1.35;;;7.10;99.90;;;;;;6232779;23;20352;-86
2023/04/02 15:43:01;;;;;;;3.80;1.63;;;6.80;99.90;;;;;;6234789;23;20355;-86
2023/04/02 15:45:55;;;;;;;2.70;1.40;;;6.90;99.90;;;;;;6237917;23;20412;-87
2023/04/02 15:48:23;;;;;;;4.88;1.80;;;7.00;99.90;;;;;;6234336;23;20360;-87
2023/04/02 15:50:51;;;;;;;3.95;1.42;;;7.30;99.90;;;;;;6236493;23;20348;-87
2023/04/02 15:53:47;;;;;;;5.70;1.77;;;7.40;99.90;;;;;;6232850;23;20359;-84
2023/04/02 15:56:49;;;;;;;5.68;1.90;;;7.30;99.90;;;;;;6233895;23;20355;-86
2023/04/02 15:59:35;;;;;;;5.47;1.90;;;7.20;99.90;;;;;;6217645;23;20336;-84
2023/04/02 16:02:57;;;;;;;5.28;1.67;;;7.10;99.90;;;;;;6237532;23;20368;-85
2023/04/02 16:06:00;;;;;;;4.15;1.75;;;6.80;99.90;;;;;;6161441;23;20372;-85
2023/04/02 16:08:58;;;;;;;5.20;1.70;;;6.80;99.90;;;;;;6238634;23;20454;-85
2023/04/02 16:11:35;;;;;;;5.30;1.88;;;6.70;99.90;;;;;;6265576;23;20324;-85
2023/04/02 16:14:28;;;;;;;4.78;1.52;;;6.70;99.90;;;;;;6237760;23;20351;-85
2023/04/02 16:17:44;;;;;;;7.53;1.63;;;6.50;99.90;;;;;;6239552;23;20411;-85
2023/04/02 16:20:36;;;;;;;3.83;2.03;;;6.40;99.90;;;;;;6214280;23;20358;-86
2023/04/02 16:23:54;;;;;;;;;;;;;;;;;;;;;
2023/04/02 16:27:02;;;;;;;5.75;1.80;;;6.60;99.90;;;;;;6237493;23;20332;-86
2023/04/02 16:29:52;;;;;;;4.05;1.77;;;6.60;99.90;;;;;;6245565;23;20356;-85
2023/04/02 16:32:56;;;;;;;8.07;2.10;;;6.20;99.90;;;;;;6238614;23;20332;-85
2023/04/02 16:35:48;;;;;;;3.95;1.95;;;6.10;99.90;;;;;;6265680;23;20324;-85
2023/04/02 16:38:44;;;;;;;5.57;2.13;;;5.80;99.90;;;;;;6210011;23;20341;-86
2023/04/02 16:41:34;;;;;;;6.13;2.08;;;5.90;99.90;;;;;;6241186;23;20328;-86
2023/04/02 16:44:32;;;;;;;4.45;2.05;;;6.00;99.90;;;;;;6229244;23;20352;-85
2023/04/02 16:47:50;;;;;;;3.83;1.77;;;5.90;99.90;;;;;;6220224;23;20405;-86
2023/04/02 16:50:38;;;;;;;5.30;1.85;;;6.10;99.90;;;;;;6251987;23;20383;-87
2023/04/02 16:53:28;;;;;;;3.10;1.65;;;6.20;99.90;;;;;;6222394;23;20344;-85
2023/04/02 16:56:20;;;;;;;5.60;1.80;;;6.20;99.90;;;;;;6223160;23;20348;-86
2023/04/02 16:58:53;;;;;;;4.37;1.90;;;6.10;99.90;;;;;;6249616;23;20356;-85
2023/04/02 17:01:45;;;;;;;4.25;1.70;;;6.00;99.90;;;;;;6225487;23;20350;-87
2023/04/02 17:04:36;;;;;;;3.38;1.63;;;5.90;99.90;;;;;;6249801;23;20336;-86
2023/04/02 17:07:21;;;;;;;5.25;1.90;;;5.80;99.90;;;;;;6222943;23;20699;-87
2023/04/02 17:09:53;;;;;;;6.00;1.90;;;5.50;99.90;;;;;;6222051;23;20375;-86
2023/04/02 17:12:21;;;;;;;4.25;2.00;;;5.50;99.90;;;;;;6253246;23;20336;-86
2023/04/02 17:15:06;;;;;;;3.28;1.60;;;5.50;99.90;;;;;;6224360;23;20339;-86
2023/04/02 17:17:34;;;;;;;4.67;1.77;;;5.30;99.90;;;;;;6222972;23;20344;-86